Time;durP1;ratioP1;P1;durP2;ratioP2;P2;SDS_P1;SDS_P2;PMS_P1;PMS_P2;Temp;Humidity;BMP_temperature;BMP_pressure;BME280_temperature;BME280_humidity;BME280_pressure;Samples;Min_cycle;Max_cycle;Signal;HPM_P1;HPM_P2
2021/08/26 00:06:14;;;;;;;0.70;0.30;;;;;;;14.22;48.98;99948.59;5043477;28;20052;-73
2021/08/26 00:08:40;;;;;;;0.70;0.40;;;;;;;14.23;48.82;99934.66;5043625;28;20026;-72
2021/08/26 00:11:05;;;;;;;1.10;0.38;;;;;;;14.17;48.95;99953.13;5043233;28;20358;-73
2021/08/26 00:13:31;;;;;;;0.55;0.30;;;;;;;14.12;49.17;99942.84;5043163;28;20025;-73
2021/08/26 00:15:58;;;;;;;0.43;0.38;;;;;;;14.12;49.09;99953.28;5042190;28;20125;-73
2021/08/26 00:18:24;;;;;;;0.30;0.30;;;;;;;14.12;49.06;99942.84;5042061;28;20052;-70
2021/08/26 00:20:53;;;;;;;1.00;0.30;;;;;;;14.05;49.20;99936.94;5041943;28;20052;-73
2021/08/26 00:23:20;;;;;;;0.65;0.40;;;;;;;13.98;49.23;99951.06;5043196;28;20126;-73
2021/08/26 00:25:45;;;;;;;2.58;0.30;;;;;;;13.95;49.14;99944.19;5043486;28;20076;-73
2021/08/26 00:28:10;;;;;;;1.58;0.30;;;;;;;13.99;49.23;99942.34;5043639;28;20342;-74
2021/08/26 00:30:36;;;;;;;2.05;0.70;;;;;;;13.96;49.44;99952.88;5047411;28;20092;-73
2021/08/26 00:33:01;;;;;;;0.52;0.25;;;;;;;13.96;49.21;99958.09;5047129;28;20017;-73
2021/08/26 00:35:26;;;;;;;0.70;0.40;;;;;;;13.88;49.37;99934.84;5047182;28;20033;-72
2021/08/26 00:37:52;;;;;;;0.60;0.20;;;;;;;13.87;49.50;99933.97;5047458;28;20513;-73
2021/08/26 00:40:17;;;;;;;1.50;0.70;;;;;;;13.84;49.53;99936.69;5047548;28;20044;-74
2021/08/26 00:42:43;;;;;;;1.92;0.30;;;;;;;13.78;49.86;99944.69;5047043;28;20033;-73
2021/08/26 00:45:09;;;;;;;0.20;0.20;;;;;;;13.80;49.70;99950.69;5047011;28;20041;-72
2021/08/26 00:47:35;;;;;;;0.30;0.30;;;;;;;13.73;49.79;99939.59;5046973;28;20021;-73
2021/08/26 00:50:00;;;;;;;0.25;0.20;;;;;;;13.75;49.66;99956.06;5046993;28;20033;-74
2021/08/26 00:52:26;;;;;;;2.58;0.40;;;;;;;13.74;49.60;99933.47;5047005;28;20163;-72
2021/08/26 00:54:55;;;;;;;0.65;0.30;;;;;;;13.84;49.53;99930.59;5046851;28;20506;-78
2021/08/26 00:57:21;;;;;;;6.38;0.55;;;;;;;13.75;49.34;99943.00;5046706;28;20091;-76
2021/08/26 00:59:48;;;;;;;1.33;0.38;;;;;;;13.70;49.43;99931.00;5046893;28;20095;-75
2021/08/26 01:02:24;;;;;;;0.73;0.20;;;;;;;13.70;49.40;99916.22;5046953;28;20100;-71
2021/08/26 01:04:52;;;;;;;0.63;0.40;;;;;;;13.69;49.37;99937.13;5046409;28;20463;-73
2021/08/26 01:07:27;;;;;;;0.50;0.40;;;;;;;13.77;49.23;99942.97;5045349;28;20026;-71
2021/08/26 01:10:02;;;;;;;1.25;0.30;;;;;;;13.76;49.19;99904.75;5045072;28;20176;-73
2021/08/26 01:12:30;;;;;;;0.30;0.30;;;;;;;13.80;48.93;99934.22;5045003;28;20140;-71
2021/08/26 01:14:56;;;;;;;0.82;0.35;;;;;;;13.80;48.85;99915.94;5044964;28;20028;-70
2021/08/26 01:17:27;;;;;;;1.30;0.30;;;;;;;13.73;48.71;99933.53;5045211;28;20381;-72
2021/08/26 01:19:54;;;;;;;2.47;0.32;;;;;;;13.76;49.08;99943.88;5046571;28;20029;-72
2021/08/26 01:22:21;;;;;;;0.85;0.35;;;;;;;13.71;48.97;99927.50;5046578;28;20029;-71
2021/08/26 01:24:53;;;;;;;0.93;0.35;;;;;;;13.74;48.97;99932.63;5046448;28;20025;-71
2021/08/26 01:27:20;;;;;;;0.20;0.20;;;;;;;13.73;48.82;99947.44;5046423;28;20021;-70
2021/08/26 01:29:49;;;;;;;2.05;0.40;;;;;;;13.71;48.93;99954.44;5046389;28;20017;-72
2021/08/26 01:32:20;;;;;;;0.40;0.32;;;;;;;13.65;48.84;99948.53;5046199;28;20033;-74
2021/08/26 01:34:47;;;;;;;1.75;0.30;;;;;;;13.71;48.92;99932.72;5044840;28;20021;-71
2021/08/26 01:37:17;;;;;;;1.13;0.40;;;;;;;13.71;48.86;99956.19;5046363;28;20033;-72
2021/08/26 01:39:49;;;;;;;0.93;0.30;;;;;;;13.69;48.89;99939.75;5045584;28;20268;-72
2021/08/26 01:42:14;;;;;;;;;;;;;;;13.68;48.78;99954.53;5046117;28;20057;-72
2021/08/26 01:44:39;;;;;;;0.85;0.40;;;;;;;13.62;48.96;99950.34;5046032;28;20365;-71
2021/08/26 01:47:12;;;;;;;1.08;0.52;;;;;;;13.63;49.05;99943.38;5045987;28;20044;-72
2021/08/26 01:49:37;;;;;;;0.40;0.35;;;;;;;13.65;48.91;99958.97;5045834;28;20029;-71
2021/08/26 01:52:03;;;;;;;0.65;0.40;;;;;;;13.61;48.86;99953.84;5045885;28;20067;-71
2021/08/26 01:54:28;;;;;;;0.60;0.40;;;;;;;13.58;49.01;99953.06;5044112;28;20143;-73
2021/08/26 01:56:55;;;;;;;1.73;0.47;;;;;;;13.60;49.05;99925.19;5044414;28;20031;-72
2021/08/26 01:59:20;;;;;;;0.50;0.43;;;;;;;13.60;48.93;99951.28;5045657;28;20029;-72
2021/08/26 02:01:45;;;;;;;0.30;0.30;;;;;;;13.60;48.94;99946.94;5045507;28;20079;-72
2021/08/26 02:04:11;;;;;;;1.90;0.63;;;;;;;13.54;49.14;99962.75;5045594;28;20021;-75
2021/08/26 02:06:36;;;;;;;0.63;0.40;;;;;;;13.56;49.09;99944.44;5045601;28;20044;-69
2021/08/26 02:09:02;;;;;;;2.25;0.93;;;;;;;13.55;48.93;99959.25;5045555;28;20025;-71
2021/08/26 02:11:27;;;;;;;0.55;0.30;;;;;;;13.54;48.98;99928.00;5045410;28;20029;-71
2021/08/26 02:13:53;;;;;;;0.30;0.30;;;;;;;13.50;49.19;99966.28;5045446;28;20109;-72
2021/08/26 02:16:18;;;;;;;1.40;0.60;;;;;;;13.51;49.03;99949.81;5045543;28;20052;-72
2021/08/26 02:18:44;;;;;;;0.40;0.30;;;;;;;13.45;49.22;99942.13;5045488;28;20108;-71
2021/08/26 02:21:10;;;;;;;1.70;0.50;;;;;;;13.43;49.21;99963.03;5043999;28;20040;-72
2021/08/26 02:23:36;;;;;;;0.80;0.75;;;;;;;13.41;49.22;99951.78;5045017;28;20028;-71
2021/08/26 02:26:01;;;;;;;0.88;0.50;;;;;;;13.45;48.88;99970.81;5045230;28;20049;-71
2021/08/26 02:28:27;;;;;;;0.43;0.43;;;;;;;13.43;49.17;99970.84;5044858;28;20037;-71
2021/08/26 02:30:52;;;;;;;0.68;0.40;;;;;;;13.43;48.93;99959.56;5045294;28;20028;-70
2021/08/26 02:33:17;;;;;;;0.85;0.50;;;;;;;13.30;49.08;99969.44;5044875;28;20025;-74
2021/08/26 02:35:43;;;;;;;0.80;0.40;;;;;;;13.37;49.20;99944.94;5044982;28;20025;-69
2021/08/26 02:38:08;;;;;;;0.80;0.50;;;;;;;13.31;49.14;99963.34;5043678;28;20063;-72
2021/08/26 02:40:34;;;;;;;1.23;0.50;;;;;;;13.39;48.96;99964.84;5044829;28;20426;-70
2021/08/26 02:42:59;;;;;;;2.03;0.43;;;;;;;13.32;49.03;99962.47;5045010;28;20071;-71
2021/08/26 02:45:24;;;;;;;0.68;0.60;;;;;;;13.30;49.21;99964.25;5044795;28;20026;-72
2021/08/26 02:47:50;;;;;;;1.58;0.40;;;;;;;13.21;49.18;99950.56;5044909;28;20056;-71
2021/08/26 02:50:15;;;;;;;2.08;0.40;;;;;;;13.19;49.22;99964.53;5043600;28;20030;-70
2021/08/26 02:52:40;;;;;;;1.77;0.52;;;;;;;13.14;49.40;99965.53;5044385;28;20492;-69
2021/08/26 02:55:06;;;;;;;0.95;0.47;;;;;;;13.14;49.35;99941.19;5044557;28;20097;-70
2021/08/26 02:57:31;;;;;;;1.30;0.50;;;;;;;13.20;49.37;99971.44;5044562;28;20021;-71
2021/08/26 02:59:57;;;;;;;1.00;0.60;;;;;;;13.18;49.40;99976.69;5044426;28;20033;-76
2021/08/26 03:02:22;;;;;;;0.47;0.38;;;;;;;13.19;49.38;99974.97;5044590;28;20028;-72
2021/08/26 03:04:47;;;;;;;1.05;0.52;;;;;;;13.17;49.47;99942.84;5043106;28;20021;-71
2021/08/26 03:07:13;;;;;;;2.08;0.50;;;;;;;13.12;49.39;99937.78;5044717;28;20022;-70
2021/08/26 03:09:38;;;;;;;0.60;0.50;;;;;;;13.17;49.39;99964.56;5044293;28;20126;-72
2021/08/26 03:12:05;;;;;;;0.77;0.60;;;;;;;13.10;49.57;99963.88;5044851;28;20034;-71
2021/08/26 03:14:32;;;;;;;0.60;0.40;;;;;;;13.06;49.65;99966.59;5043046;28;20036;-71
2021/08/26 03:16:57;;;;;;;1.02;0.45;;;;;;;12.98;50.02;99957.25;5044414;28;20168;-72
2021/08/26 03:19:23;;;;;;;0.65;0.40;;;;;;;13.08;49.92;99970.03;5044277;28;20493;-72
2021/08/26 03:21:48;;;;;;;0.65;0.52;;;;;;;13.06;49.89;99961.38;5042714;28;20025;-70
2021/08/26 03:24:13;;;;;;;1.75;0.60;;;;;;;13.08;49.87;99965.66;5044174;28;20022;-71
2021/08/26 03:26:39;;;;;;;0.80;0.40;;;;;;;13.01;49.92;99970.19;5043935;28;20144;-71
2021/08/26 03:29:04;;;;;;;3.58;0.82;;;;;;;12.95;50.10;99944.28;5043974;28;20025;-72
2021/08/26 03:31:29;;;;;;;1.10;0.50;;;;;;;12.98;50.19;99977.22;5044070;28;20075;-71
2021/08/26 03:33:55;;;;;;;2.47;0.90;;;;;;;12.98;50.11;99977.22;5043550;28;20025;-69
2021/08/26 03:36:20;;;;;;;1.83;0.70;;;;;;;12.98;50.07;99972.00;5043987;28;20017;-69
2021/08/26 03:38:45;;;;;;;0.50;0.40;;;;;;;12.96;50.15;99972.03;5043929;28;20172;-71
2021/08/26 03:41:11;;;;;;;0.73;0.50;;;;;;;12.95;50.24;99982.50;5043695;28;20113;-71
2021/08/26 03:43:36;;;;;;;1.25;0.60;;;;;;;12.97;50.12;99971.16;5042321;28;20021;-72
2021/08/26 03:46:01;;;;;;;2.30;0.50;;;;;;;12.92;50.38;99978.25;5043569;28;20085;-73
2021/08/26 03:48:27;;;;;;;2.22;0.70;;;;;;;12.86;50.53;99971.41;5043643;28;20048;-72
2021/08/26 03:50:52;;;;;;;1.02;0.50;;;;;;;12.86;50.70;99976.63;5043425;28;20025;-72
2021/08/26 03:53:18;;;;;;;0.93;0.50;;;;;;;12.83;50.72;99974.09;5043433;28;20106;-72
2021/08/26 03:55:43;;;;;;;0.80;0.65;;;;;;;12.83;50.92;99966.28;5043465;28;20513;-74
2021/08/26 03:58:08;;;;;;;1.90;0.60;;;;;;;12.85;50.81;99969.72;5042260;28;20021;-76
2021/08/26 04:00:34;;;;;;;1.00;0.75;;;;;;;12.87;50.96;99972.28;5043421;28;20034;-73
2021/08/26 04:02:59;;;;;;;1.10;0.57;;;;;;;12.81;51.08;99962.84;5043048;28;20051;-74
2021/08/26 04:05:24;;;;;;;0.88;0.50;;;;;;;12.79;51.10;99963.81;5043326;28;20084;-72
2021/08/26 04:07:50;;;;;;;1.10;0.55;;;;;;;12.86;51.13;99958.41;5043394;28;20017;-71
2021/08/26 04:10:15;;;;;;;1.80;0.68;;;;;;;12.79;51.24;99954.25;5042874;28;20041;-72
2021/08/26 04:12:40;;;;;;;0.93;0.50;;;;;;;12.81;51.26;99947.22;5043205;28;20022;-69
2021/08/26 04:15:06;;;;;;;0.90;0.50;;;;;;;12.86;51.43;99970.59;5043237;28;20029;-71
2021/08/26 04:17:32;;;;;;;2.42;0.50;;;;;;;12.81;51.48;99944.63;5043405;28;20033;-69
2021/08/26 04:19:57;;;;;;;1.30;0.70;;;;;;;12.78;51.68;99962.94;5043119;28;20025;-74
2021/08/26 04:22:22;;;;;;;1.02;0.40;;;;;;;12.81;51.73;99930.75;5042829;28;20128;-71
2021/08/26 04:24:48;;;;;;;1.50;0.65;;;;;;;12.81;51.63;99970.66;5043029;28;20029;-72
2021/08/26 04:27:13;;;;;;;0.65;0.45;;;;;;;12.73;51.65;99963.06;5043221;28;20085;-73
2021/08/26 04:29:38;;;;;;;1.42;0.75;;;;;;;12.73;51.79;99965.66;5043040;28;20242;-66
2021/08/26 04:32:05;;;;;;;1.60;0.60;;;;;;;12.75;51.86;99963.88;5042776;28;20021;-70
2021/08/26 04:34:30;;;;;;;1.05;0.50;;;;;;;12.75;51.93;99965.63;5042653;28;20432;-70
2021/08/26 04:36:55;;;;;;;1.25;0.60;;;;;;;12.77;51.71;99979.47;5042749;28;20025;-72
2021/08/26 04:39:21;;;;;;;0.95;0.55;;;;;;;12.75;52.28;99981.25;5042570;28;20093;-69
2021/08/26 04:41:46;;;;;;;3.15;0.70;;;;;;;12.66;52.50;99984.06;5042753;28;20018;-68
2021/08/26 04:44:11;;;;;;;2.05;0.60;;;;;;;12.69;52.82;99971.84;5042809;28;20056;-68
2021/08/26 04:46:37;;;;;;;1.38;0.80;;;;;;;12.69;53.26;99982.25;5043149;28;20052;-68
2021/08/26 04:49:02;;;;;;;1.40;0.80;;;;;;;12.66;53.29;99981.47;5043028;28;20018;-69
2021/08/26 04:51:28;;;;;;;5.22;0.77;;;;;;;12.63;53.29;99977.19;5042839;28;20065;-72
2021/08/26 04:53:53;;;;;;;1.17;0.60;;;;;;;12.66;53.26;99964.09;5042642;28;20021;-67
2021/08/26 04:56:18;;;;;;;2.33;0.75;;;;;;;12.68;53.22;99996.19;5043007;28;20030;-70
2021/08/26 04:58:44;;;;;;;2.92;0.73;;;;;;;12.69;53.17;99989.22;5042799;28;20040;-69
2021/08/26 05:01:09;;;;;;;4.72;1.05;;;;;;;12.70;53.16;99967.50;5043089;28;20037;-68
2021/08/26 05:03:35;;;;;;;3.30;0.77;;;;;;;12.67;53.23;99983.19;5042770;28;20109;-69
2021/08/26 05:06:04;;;;;;;2.47;0.50;;;;;;;12.71;53.28;99977.00;5042883;28;20337;-68
2021/08/26 05:08:30;;;;;;;3.42;0.70;;;;;;;12.70;53.38;99967.50;5042549;28;20053;-70
2021/08/26 05:10:55;;;;;;;10.93;1.05;;;;;;;12.72;53.43;99955.28;5042515;28;20065;-69
2021/08/26 05:13:21;;;;;;;1.00;0.47;;;;;;;12.73;53.41;99980.44;5042512;28;20025;-69
2021/08/26 05:15:46;;;;;;;2.30;0.60;;;;;;;12.62;53.46;99968.53;5043916;28;20083;-69
2021/08/26 05:18:12;;;;;;;1.80;0.75;;;;;;;12.74;53.41;99984.75;5044903;28;20389;-71
2021/08/26 05:20:37;;;;;;;1.02;0.60;;;;;;;12.71;53.47;99962.25;5046230;28;20033;-69
2021/08/26 05:23:02;;;;;;;1.27;0.68;;;;;;;12.69;53.26;99974.44;5046278;28;20096;-69
2021/08/26 05:25:28;;;;;;;1.88;0.47;;;;;;;12.68;53.47;99987.50;5046269;28;20026;-70
2021/08/26 05:27:54;;;;;;;2.50;0.70;;;;;;;12.74;53.54;99980.41;5046572;28;20025;-68
2021/08/26 05:30:19;;;;;;;5.10;0.90;;;;;;;12.74;53.44;100005.59;5045253;28;20119;-69
2021/08/26 05:32:44;;;;;;;2.35;0.75;;;;;;;12.75;53.65;99984.72;5046279;28;20022;-68
2021/08/26 05:35:10;;;;;;;1.30;0.50;;;;;;;12.73;54.03;99960.44;5044828;28;20037;-69
2021/08/26 05:37:36;;;;;;;0.65;0.35;;;;;;;12.69;54.33;99960.56;5046162;28;20036;-72
2021/08/26 05:40:01;;;;;;;2.20;0.80;;;;;;;12.72;54.70;100005.63;5045953;28;20117;-70
2021/08/26 05:42:26;;;;;;;1.40;0.65;;;;;;;12.74;54.93;100002.97;5046214;28;20104;-74
2021/08/26 05:44:52;;;;;;;3.65;0.73;;;;;;;12.74;54.89;100008.19;5044756;28;20057;-70
2021/08/26 05:47:19;;;;;;;0.77;0.57;;;;;;;12.76;55.32;100009.03;5046315;28;20037;-69
2021/08/26 05:49:44;;;;;;;1.70;0.75;;;;;;;12.76;55.18;99999.44;5046060;28;20037;-69
2021/08/26 05:52:10;;;;;;;1.20;0.57;;;;;;;12.93;55.05;100007.75;5045901;28;20017;-70
2021/08/26 05:54:36;;;;;;;3.78;0.90;;;;;;;12.86;55.25;100013.09;5044372;28;20022;-71
2021/08/26 05:57:03;;;;;;;3.20;0.93;;;;;;;12.96;55.14;100012.88;5045972;28;20037;-68
2021/08/26 05:59:28;;;;;;;1.17;0.65;;;;;;;12.99;55.09;100010.19;5044454;28;20017;-69
2021/08/26 06:01:53;;;;;;;0.95;0.70;;;;;;;12.96;55.15;100012.88;5045693;28;20047;-70
2021/08/26 06:04:19;;;;;;;1.00;0.63;;;;;;;13.01;54.99;100003.19;5045675;28;20113;-69
2021/08/26 06:06:44;;;;;;;1.17;0.55;;;;;;;12.95;54.97;99998.16;5045616;28;20128;-74
2021/08/26 06:09:10;;;;;;;5.15;1.00;;;;;;;12.98;55.09;100016.31;5045520;28;20032;-73
2021/08/26 06:11:35;;;;;;;1.20;0.55;;;;;;;12.93;55.14;100028.59;5045578;28;20518;-72
2021/08/26 06:14:03;;;;;;;3.25;0.80;;;;;;;12.93;54.91;100011.22;5045367;28;20017;-70
2021/08/26 06:16:29;;;;;;;1.55;0.80;;;;;;;12.91;55.36;100023.41;5045526;28;20027;-72
2021/08/26 06:18:54;;;;;;;3.60;1.08;;;;;;;12.98;55.30;100016.31;5043949;28;20079;-70
2021/08/26 06:21:20;;;;;;;3.53;0.73;;;;;;;13.02;54.93;100020.53;5045293;28;20029;-71
2021/08/26 06:23:45;;;;;;;3.83;1.08;;;;;;;13.06;55.02;100030.00;5045271;28;20020;-71
2021/08/26 06:26:11;;;;;;;1.60;0.70;;;;;;;13.22;54.55;100008.75;5045012;28;20494;-68
2021/08/26 06:28:36;;;;;;;1.02;0.80;;;;;;;13.21;54.36;100028.75;5045440;28;20409;-72
2021/08/26 06:31:02;;;;;;;3.00;0.75;;;;;;;13.12;54.72;100029.84;5044890;28;20026;-71
2021/08/26 06:33:27;;;;;;;1.65;0.60;;;;;;;12.99;55.00;100029.28;5044518;28;20114;-71
2021/08/26 06:35:53;;;;;;;3.80;0.80;;;;;;;13.01;55.33;100011.88;5044391;28;20035;-70
2021/08/26 06:38:18;;;;;;;2.40;0.88;;;;;;;13.01;55.20;100021.44;5044513;28;20076;-75
2021/08/26 06:40:44;;;;;;;5.18;0.82;;;;;;;13.13;55.21;100020.28;5044556;28;20029;-71
2021/08/26 06:43:09;;;;;;;2.00;0.73;;;;;;;13.08;55.15;100015.16;5044711;28;20042;-71
2021/08/26 06:45:34;;;;;;;1.23;0.70;;;;;;;13.14;55.03;100042.84;5044657;28;20025;-72
2021/08/26 06:48:00;;;;;;;1.10;0.60;;;;;;;13.14;55.10;100055.88;5044359;28;20025;-71
2021/08/26 06:50:25;;;;;;;2.53;0.85;;;;;;;13.11;55.21;100046.41;5044557;28;20032;-70
2021/08/26 06:52:52;;;;;;;2.47;0.90;;;;;;;13.11;55.32;100048.13;5044246;28;20017;-71
2021/08/26 06:55:17;;;;;;;2.88;1.02;;;;;;;13.17;55.14;100042.75;5044353;28;20034;-71
2021/08/26 06:57:43;;;;;;;4.57;1.13;;;;;;;13.20;55.32;100052.25;5044404;28;20025;-71
2021/08/26 07:00:08;;;;;;;1.70;0.90;;;;;;;13.32;55.27;100054.53;5044526;28;20117;-73
2021/08/26 07:02:35;;;;;;;3.03;1.27;;;;;;;13.41;55.11;100065.63;5044351;28;20442;-76
2021/08/26 07:05:01;;;;;;;1.27;0.60;;;;;;;13.55;54.65;100055.72;5044060;28;20026;-72
2021/08/26 07:07:26;;;;;;;5.57;0.80;;;;;;;13.67;54.00;100045.88;5042509;28;20056;-72
2021/08/26 07:09:52;;;;;;;2.22;0.90;;;;;;;13.74;53.96;100065.66;5043998;28;20049;-71
2021/08/26 07:12:17;;;;;;;4.63;0.85;;;;;;;13.82;53.89;100045.44;5043823;28;20474;-69
2021/08/26 07:14:42;;;;;;;4.32;0.93;;;;;;;13.90;53.43;100067.88;5043803;28;20017;-71
2021/08/26 07:17:08;;;;;;;2.55;0.93;;;;;;;13.85;53.45;100055.78;5043856;28;20029;-68
2021/08/26 07:19:33;;;;;;;2.00;1.08;;;;;;;13.70;54.14;100040.56;5044096;28;20108;-69
2021/08/26 07:21:58;;;;;;;1.33;0.60;;;;;;;13.60;54.45;100066.91;5043717;28;20036;-69
2021/08/26 07:24:24;;;;;;;1.73;0.63;;;;;;;13.50;54.88;100075.81;5043874;28;20064;-72
2021/08/26 07:26:49;;;;;;;2.53;0.80;;;;;;;13.45;55.34;100080.31;5042304;28;20032;-71
2021/08/26 07:29:15;;;;;;;3.90;0.93;;;;;;;13.47;55.58;100081.13;5044020;28;20084;-72
2021/08/26 07:31:41;;;;;;;3.47;0.90;;;;;;;13.63;55.44;100042.47;5044015;28;20097;-68
2021/08/26 07:34:06;;;;;;;3.10;1.00;;;;;;;13.61;55.43;100083.41;5043983;28;20049;-71
2021/08/26 07:36:31;;;;;;;3.70;0.95;;;;;;;13.45;56.07;100072.50;5043892;28;20041;-69
2021/08/26 07:38:57;;;;;;;3.22;0.73;;;;;;;13.49;56.20;100098.44;5041723;28;20032;-70
2021/08/26 07:41:25;;;;;;;2.25;0.90;;;;;;;13.41;56.58;100081.28;5043912;28;20482;-72
2021/08/26 07:43:50;;;;;;;5.15;1.08;;;;;;;13.33;56.89;100090.16;5043685;28;20081;-69
2021/08/26 07:46:16;;;;;;;6.85;1.13;;;;;;;13.40;57.15;100090.88;5042468;28;20049;-71
2021/08/26 07:48:41;;;;;;;1.52;0.73;;;;;;;13.55;56.92;100091.38;5043768;28;20029;-71
2021/08/26 07:51:06;;;;;;;7.20;1.38;;;;;;;13.68;56.87;100084.09;5043707;28;20087;-70
2021/08/26 07:53:33;;;;;;;1.10;0.95;;;;;;;14.02;56.17;100082.31;5043864;28;20022;-72
2021/08/26 07:56:02;;;;;;;2.13;0.82;;;;;;;14.29;55.57;100085.03;5043839;28;20026;-70
2021/08/26 07:58:29;;;;;;;2.85;1.00;;;;;;;14.44;55.17;100089.81;5043839;28;20060;-71
2021/08/26 08:00:56;;;;;;;2.67;0.80;;;;;;;14.72;54.05;100056.78;5043778;28;20033;-69
2021/08/26 08:03:22;;;;;;;1.83;0.90;;;;;;;14.84;53.57;100051.19;5043947;28;20025;-69
2021/08/26 08:05:47;;;;;;;5.55;1.17;;;;;;;14.82;53.71;100083.50;5043742;28;20032;-70
2021/08/26 08:08:13;;;;;;;4.57;0.73;;;;;;;15.00;53.76;100071.59;5043695;28;20442;-71
2021/08/26 08:10:38;;;;;;;2.60;1.00;;;;;;;15.08;53.36;100077.44;5043507;28;20057;-70
2021/08/26 08:13:04;;;;;;;1.88;1.05;;;;;;;14.97;53.24;100076.91;5043331;28;20515;-75
2021/08/26 08:15:29;;;;;;;6.93;0.85;;;;;;;14.76;53.99;100084.50;5043433;28;20029;-71
2021/08/26 08:17:54;;;;;;;2.33;0.82;;;;;;;14.53;54.61;100085.22;5043338;28;20021;-69
2021/08/26 08:20:20;;;;;;;6.85;1.20;;;;;;;14.27;55.17;100082.47;5043416;28;20025;-71
2021/08/26 08:22:45;;;;;;;4.00;1.20;;;;;;;14.29;55.53;100090.25;5043268;28;20025;-72
2021/08/26 08:25:12;;;;;;;5.47;1.40;;;;;;;14.28;55.53;100088.56;5043320;28;20026;-71
2021/08/26 08:27:37;;;;;;;4.38;1.17;;;;;;;14.20;55.58;100102.69;5043488;28;20094;-71
2021/08/26 08:30:03;;;;;;;6.10;1.38;;;;;;;13.96;56.36;100086.81;5043296;28;20079;-71
2021/08/26 08:32:29;;;;;;;2.72;1.23;;;;;;;14.03;56.58;100097.94;5043047;28;20052;-71
2021/08/26 08:34:55;;;;;;;1.10;0.55;;;;;;;14.12;56.09;100040.25;5041642;28;20055;-75
2021/08/26 08:37:20;;;;;;;1.38;0.80;;;;;;;14.12;56.30;100081.19;5043454;28;20025;-69
2021/08/26 08:39:45;;;;;;;3.35;0.90;;;;;;;14.29;55.80;100070.25;5041902;28;20033;-69
2021/08/26 08:42:11;;;;;;;2.67;1.13;;;;;;;14.46;56.07;100053.19;5043122;28;20018;-70
2021/08/26 08:44:36;;;;;;;1.38;0.80;;;;;;;15.03;55.07;100087.16;5042983;28;20047;-71
2021/08/26 08:47:04;;;;;;;1.27;0.90;;;;;;;15.36;54.08;100094.84;5042921;28;20089;-69
2021/08/26 08:49:31;;;;;;;3.55;0.98;;;;;;;15.35;53.37;100072.19;5042883;28;20099;-70
2021/08/26 08:51:56;;;;;;;1.20;0.65;;;;;;;15.49;53.39;100091.81;5047133;28;20052;-71
2021/08/26 08:54:23;;;;;;;1.58;0.90;;;;;;;15.53;53.61;100084.72;5047029;28;20021;-72
2021/08/26 08:56:49;;;;;;;4.70;1.40;;;;;;;15.45;53.77;100080.59;5047363;28;20036;-70
2021/08/26 08:59:15;;;;;;;2.55;1.00;;;;;;;15.45;53.10;100119.81;5046934;28;20026;-70
2021/08/26 09:01:48;;;;;;;3.03;1.50;;;;;;;15.30;53.70;100084.59;5046904;28;20084;-70
2021/08/26 09:04:14;;;;;;;6.60;1.20;;;;;;;15.22;53.93;100102.28;5047061;28;20018;-71
2021/08/26 09:06:40;;;;;;;3.40;0.80;;;;;;;15.25;54.30;100096.94;5046805;28;20079;-71
2021/08/26 09:09:08;;;;;;;2.92;1.10;;;;;;;15.32;54.22;100108.06;5046637;28;20033;-69
2021/08/26 09:11:34;;;;;;;3.67;1.35;;;;;;;15.45;53.94;100084.94;5046663;28;20029;-70
2021/08/26 09:14:13;;;;;;;1.45;0.90;;;;;;;15.55;54.03;100098.56;5046547;28;20025;-70
2021/08/26 09:16:45;;;;;;;3.60;0.88;;;;;;;15.98;53.09;100075.31;5046839;28;20053;-70
2021/08/26 09:19:20;;;;;;;1.70;1.00;;;;;;;16.07;52.42;100131.72;5046789;28;20036;-70
2021/08/26 09:21:48;;;;;;;1.92;0.77;;;;;;;15.82;52.76;100094.16;5046549;28;20032;-70
2021/08/26 09:24:14;;;;;;;2.40;0.98;;;;;;;15.62;54.12;100100.09;5045492;28;20018;-68
2021/08/26 09:26:42;;;;;;;0.82;0.63;;;;;;;15.77;54.15;100103.09;5046650;28;20021;-70
2021/08/26 09:29:10;;;;;;;2.05;0.90;;;;;;;16.20;53.25;100111.16;5046524;28;20036;-70
2021/08/26 09:31:35;;;;;;;2.95;0.90;;;;;;;16.43;52.40;100110.31;5046524;28;20075;-70
2021/08/26 09:34:02;;;;;;;2.92;1.00;;;;;;;16.29;52.84;100110.84;5046003;28;20022;-68
2021/08/26 09:36:34;;;;;;;7.13;1.10;;;;;;;16.50;53.25;100087.38;5046256;28;20508;-69
2021/08/26 09:39:00;;;;;;;2.70;1.27;;;;;;;16.64;52.47;100106.94;5046316;28;20021;-70
2021/08/26 09:41:46;;;;;;;1.25;0.70;;;;;;;16.43;51.72;100081.50;5044789;28;20025;-71
2021/08/26 09:44:11;;;;;;;1.48;0.80;;;;;;;16.06;53.12;100103.81;5045934;28;20029;-70
2021/08/26 09:46:37;;;;;;;3.33;0.90;;;;;;;15.74;54.25;100104.03;5045784;28;20069;-71
2021/08/26 09:49:05;;;;;;;2.22;1.10;;;;;;;15.61;54.86;100090.50;5045957;28;20021;-70
2021/08/26 09:51:30;;;;;;;1.48;0.98;;;;;;;15.49;55.24;100110.13;5046197;28;20429;-70
2021/08/26 09:53:56;;;;;;;1.30;0.70;;;;;;;15.38;55.68;100102.63;5044450;28;20410;-70
2021/08/26 09:56:21;;;;;;;2.15;0.90;;;;;;;15.33;55.74;100110.63;5045951;28;20072;-70
2021/08/26 09:58:53;;;;;;;2.03;0.80;;;;;;;15.35;55.83;100105.34;5046028;28;20018;-70
2021/08/26 10:01:20;;;;;;;1.27;0.77;;;;;;;15.22;55.98;100056.06;5045164;28;20021;-69
2021/08/26 10:03:47;;;;;;;4.50;0.73;;;;;;;15.43;55.84;100039.69;5045805;28;20029;-69
2021/08/26 10:06:14;;;;;;;1.42;0.75;;;;;;;15.46;55.72;100094.53;5044238;28;20037;-69
2021/08/26 10:08:42;;;;;;;5.30;0.75;;;;;;;15.17;56.06;100088.50;5044319;28;20497;-69
2021/08/26 10:11:09;;;;;;;2.55;0.85;;;;;;;15.05;57.07;100103.66;5045400;28;20050;-69
2021/08/26 10:13:36;;;;;;;3.30;1.10;;;;;;;15.04;57.01;100088.91;5045360;28;20116;-69
2021/08/26 10:16:02;;;;;;;3.15;1.02;;;;;;;14.99;57.33;100111.72;5045474;28;20029;-70
2021/08/26 10:18:29;;;;;;;3.15;1.10;;;;;;;15.04;57.66;100122.03;5045467;28;20025;-69
2021/08/26 10:20:58;;;;;;;2.85;1.00;;;;;;;15.09;57.55;100131.44;5045564;28;20029;-69
2021/08/26 10:23:25;;;;;;;2.83;1.38;;;;;;;15.24;57.62;100126.59;5045491;28;20040;-71
2021/08/26 10:25:54;;;;;;;3.05;0.93;;;;;;;15.54;56.52;100123.91;5045471;28;20337;-70
2021/08/26 10:28:21;;;;;;;1.60;0.85;;;;;;;15.52;56.47;100112.63;5044100;28;20022;-69
2021/08/26 10:30:47;;;;;;;1.50;0.90;;;;;;;15.32;56.83;100116.75;5045035;28;20041;-70
2021/08/26 10:33:15;;;;;;;1.35;0.77;;;;;;;15.26;57.17;100085.56;5043837;28;20041;-68
2021/08/26 10:35:49;;;;;;;2.42;0.90;;;;;;;15.29;57.18;100129.94;5045143;28;20021;-69
2021/08/26 10:38:30;;;;;;;1.58;0.80;;;;;;;15.46;57.23;100063.13;5045007;28;20025;-69
2021/08/26 10:40:57;;;;;;;1.23;0.80;;;;;;;15.64;56.68;100119.19;5044889;28;20496;-70
2021/08/26 10:43:56;;;;;;;2.63;0.90;;;;;;;15.73;56.53;100126.72;5045112;28;20155;-69
2021/08/26 10:46:55;;;;;;;1.25;0.85;;;;;;;15.78;56.71;100123.09;5044974;28;20545;-70
2021/08/26 10:49:22;;;;;;;1.73;0.60;;;;;;;16.08;56.23;100109.88;5045049;28;20037;-68
2021/08/26 10:51:49;;;;;;;2.15;0.63;;;;;;;16.41;55.07;100106.03;5045037;28;20461;-70
2021/08/26 10:54:29;;;;;;;1.60;0.85;;;;;;;16.21;54.85;100142.53;5044765;28;20061;-68
2021/08/26 10:56:55;;;;;;;1.50;0.80;;;;;;;15.95;55.56;100151.31;5044906;28;20032;-69
2021/08/26 10:59:32;;;;;;;2.10;0.70;;;;;;;15.73;56.07;100131.13;5044831;28;20036;-67
2021/08/26 11:01:58;;;;;;;1.58;0.70;;;;;;;15.65;56.53;100135.75;5044540;28;20079;-66
2021/08/26 11:04:30;;;;;;;1.23;0.70;;;;;;;15.54;56.79;100116.06;5044522;28;20040;-68
2021/08/26 11:06:56;;;;;;;;;;;;;;;15.44;57.33;100122.47;5045031;28;20025;-67
2021/08/26 11:09:24;;;;;;;1.75;0.73;;;;;;;15.16;58.25;100154.78;5044267;28;19924;-67
2021/08/26 11:11:57;;;;;;;1.65;0.63;;;;;;;15.09;58.60;100156.72;5044589;28;20057;-68
2021/08/26 11:14:27;;;;;;;4.18;0.93;;;;;;;15.01;59.08;100148.25;5043386;28;20037;-66
2021/08/26 11:16:59;;;;;;;2.78;0.90;;;;;;;14.96;58.96;100153.63;5044558;28;20040;-68
2021/08/26 11:19:24;;;;;;;;;;;;;;;14.87;59.13;100155.63;5045140;28;20592;-69
2021/08/26 11:21:52;;;;;;;2.30;1.07;;;;;;;14.75;59.98;100153.34;5044521;28;20403;-68
2021/08/26 11:24:23;;;;;;;2.88;1.05;;;;;;;14.65;60.45;100167.59;5044334;28;20301;-68
2021/08/26 11:26:54;;;;;;;1.63;0.93;;;;;;;14.69;60.64;100161.38;5043951;28;20025;-68
2021/08/26 11:29:22;;;;;;;1.60;0.95;;;;;;;14.65;60.75;100162.38;5042791;28;20028;-69
2021/08/26 11:31:54;;;;;;;2.22;1.10;;;;;;;14.77;60.78;100161.13;5044055;28;20037;-67